sensor_id;sensor_type;location;lat;lon;timestamp;P1;durP1;ratioP1;P2;durP2;ratioP2
27491;SDS011;14927;51.210;6.838;2023-12-20T00:02:15;7.75;;;2.70;;
27491;SDS011;14927;51.210;6.838;2023-12-20T00:05:00;4.75;;;2.35;;
27491;SDS011;14927;51.210;6.838;2023-12-20T00:07:44;7.30;;;2.13;;
27491;SDS011;14927;51.210;6.838;2023-12-20T00:10:29;5.57;;;2.35;;
27491;SDS011;14927;51.210;6.838;2023-12-20T00:13:14;7.57;;;2.78;;
27491;SDS011;14927;51.210;6.838;2023-12-20T00:15:58;7.05;;;2.85;;
27491;SDS011;14927;51.210;6.838;2023-12-20T00:18:43;4.45;;;2.55;;
27491;SDS011;14927;51.210;6.838;2023-12-20T00:21:28;5.50;;;2.95;;
27491;SDS011;14927;51.210;6.838;2023-12-20T00:24:13;9.90;;;3.90;;
27491;SDS011;14927;51.210;6.838;2023-12-20T00:26:57;7.90;;;3.25;;
27491;SDS011;14927;51.210;6.838;2023-12-20T00:29:42;5.97;;;3.00;;
27491;SDS011;14927;51.210;6.838;2023-12-20T00:32:31;4.07;;;2.75;;
27491;SDS011;14927;51.210;6.838;2023-12-20T00:35:15;11.07;;;3.17;;
27491;SDS011;14927;51.210;6.838;2023-12-20T00:38:00;6.32;;;3.20;;
27491;SDS011;14927;51.210;6.838;2023-12-20T00:40:48;7.47;;;3.40;;
27491;SDS011;14927;51.210;6.838;2023-12-20T00:43:33;7.93;;;3.00;;
27491;SDS011;14927;51.210;6.838;2023-12-20T00:46:17;5.90;;;3.45;;
27491;SDS011;14927;51.210;6.838;2023-12-20T00:49:03;7.50;;;3.55;;
27491;SDS011;14927;51.210;6.838;2023-12-20T00:51:50;6.55;;;3.90;;
27491;SDS011;14927;51.210;6.838;2023-12-20T00:54:36;8.77;;;4.25;;
27491;SDS011;14927;51.210;6.838;2023-12-20T00:57:21;8.90;;;4.47;;
27491;SDS011;14927;51.210;6.838;2023-12-20T01:00:07;9.65;;;4.53;;
27491;SDS011;14927;51.210;6.838;2023-12-20T01:02:53;9.80;;;4.85;;
27491;SDS011;14927;51.210;6.838;2023-12-20T01:05:38;7.05;;;4.53;;
27491;SDS011;14927;51.210;6.838;2023-12-20T01:08:24;9.65;;;5.15;;
27491;SDS011;14927;51.210;6.838;2023-12-20T01:11:09;8.73;;;5.40;;
27491;SDS011;14927;51.210;6.838;2023-12-20T01:13:54;9.18;;;5.78;;
27491;SDS011;14927;51.210;6.838;2023-12-20T01:16:38;17.38;;;6.43;;
27491;SDS011;14927;51.210;6.838;2023-12-20T01:19:24;15.50;;;7.03;;
27491;SDS011;14927;51.210;6.838;2023-12-20T01:22:10;18.90;;;8.75;;
27491;SDS011;14927;51.210;6.838;2023-12-20T01:24:55;15.75;;;8.02;;
27491;SDS011;14927;51.210;6.838;2023-12-20T01:27:40;17.75;;;7.88;;
27491;SDS011;14927;51.210;6.838;2023-12-20T01:30:24;16.75;;;7.93;;
27491;SDS011;14927;51.210;6.838;2023-12-20T01:33:09;20.52;;;8.00;;
27491;SDS011;14927;51.210;6.838;2023-12-20T01:35:53;11.63;;;7.97;;
27491;SDS011;14927;51.210;6.838;2023-12-20T01:38:38;13.30;;;7.97;;
27491;SDS011;14927;51.210;6.838;2023-12-20T01:41:23;21.15;;;8.20;;
27491;SDS011;14927;51.210;6.838;2023-12-20T01:44:07;13.75;;;6.95;;
27491;SDS011;14927;51.210;6.838;2023-12-20T01:46:52;12.88;;;8.20;;
27491;SDS011;14927;51.210;6.838;2023-12-20T01:49:38;13.88;;;8.13;;
27491;SDS011;14927;51.210;6.838;2023-12-20T01:52:23;19.63;;;8.38;;
27491;SDS011;14927;51.210;6.838;2023-12-20T01:55:10;13.32;;;7.70;;
27491;SDS011;14927;51.210;6.838;2023-12-20T01:57:58;16.58;;;8.05;;
27491;SDS011;14927;51.210;6.838;2023-12-20T02:00:46;18.45;;;7.50;;
27491;SDS011;14927;51.210;6.838;2023-12-20T02:03:32;17.15;;;8.00;;
27491;SDS011;14927;51.210;6.838;2023-12-20T02:06:17;17.33;;;7.57;;
27491;SDS011;14927;51.210;6.838;2023-12-20T02:09:05;15.48;;;7.00;;
27491;SDS011;14927;51.210;6.838;2023-12-20T02:11:51;14.45;;;7.03;;
27491;SDS011;14927;51.210;6.838;2023-12-20T02:14:39;17.23;;;6.72;;
27491;SDS011;14927;51.210;6.838;2023-12-20T02:17:23;15.48;;;7.15;;
27491;SDS011;14927;51.210;6.838;2023-12-20T02:20:09;15.10;;;6.18;;
27491;SDS011;14927;51.210;6.838;2023-12-20T02:22:54;22.35;;;6.45;;
27491;SDS011;14927;51.210;6.838;2023-12-20T02:25:39;15.20;;;6.13;;
27491;SDS011;14927;51.210;6.838;2023-12-20T02:28:24;18.35;;;5.72;;
27491;SDS011;14927;51.210;6.838;2023-12-20T02:31:08;13.77;;;5.35;;
27491;SDS011;14927;51.210;6.838;2023-12-20T02:33:53;17.10;;;5.78;;
27491;SDS011;14927;51.210;6.838;2023-12-20T02:36:38;13.73;;;5.57;;
27491;SDS011;14927;51.210;6.838;2023-12-20T02:39:22;16.55;;;5.38;;
27491;SDS011;14927;51.210;6.838;2023-12-20T02:42:08;17.17;;;5.75;;
27491;SDS011;14927;51.210;6.838;2023-12-20T02:44:52;20.75;;;5.63;;
27491;SDS011;14927;51.210;6.838;2023-12-20T02:47:37;17.52;;;5.10;;
27491;SDS011;14927;51.210;6.838;2023-12-20T02:50:22;12.10;;;4.72;;
27491;SDS011;14927;51.210;6.838;2023-12-20T02:53:06;14.00;;;4.05;;
27491;SDS011;14927;51.210;6.838;2023-12-20T02:55:51;15.80;;;3.83;;
27491;SDS011;14927;51.210;6.838;2023-12-20T02:58:35;14.63;;;4.30;;
27491;SDS011;14927;51.210;6.838;2023-12-20T03:01:20;17.70;;;4.35;;
27491;SDS011;14927;51.210;6.838;2023-12-20T03:04:05;18.48;;;4.10;;
27491;SDS011;14927;51.210;6.838;2023-12-20T03:06:49;19.13;;;3.53;;
27491;SDS011;14927;51.210;6.838;2023-12-20T03:09:34;14.77;;;4.30;;
27491;SDS011;14927;51.210;6.838;2023-12-20T03:12:18;12.35;;;3.20;;
27491;SDS011;14927;51.210;6.838;2023-12-20T03:15:03;15.73;;;2.90;;
27491;SDS011;14927;51.210;6.838;2023-12-20T03:17:48;15.18;;;3.05;;
27491;SDS011;14927;51.210;6.838;2023-12-20T03:20:33;16.85;;;3.38;;
27491;SDS011;14927;51.210;6.838;2023-12-20T03:23:17;14.18;;;3.08;;
27491;SDS011;14927;51.210;6.838;2023-12-20T03:26:02;14.52;;;3.45;;
27491;SDS011;14927;51.210;6.838;2023-12-20T03:28:47;16.60;;;3.28;;
27491;SDS011;14927;51.210;6.838;2023-12-20T03:31:32;13.02;;;3.50;;
27491;SDS011;14927;51.210;6.838;2023-12-20T03:34:17;14.23;;;3.08;;
27491;SDS011;14927;51.210;6.838;2023-12-20T03:37:02;21.60;;;3.42;;
27491;SDS011;14927;51.210;6.838;2023-12-20T03:39:47;14.10;;;2.92;;
27491;SDS011;14927;51.210;6.838;2023-12-20T03:42:31;11.95;;;2.65;;
27491;SDS011;14927;51.210;6.838;2023-12-20T03:45:16;16.92;;;3.42;;
27491;SDS011;14927;51.210;6.838;2023-12-20T03:48:01;11.77;;;2.42;;
27491;SDS011;14927;51.210;6.838;2023-12-20T03:50:58;15.38;;;3.05;;
27491;SDS011;14927;51.210;6.838;2023-12-20T03:54:05;19.63;;;3.63;;
27491;SDS011;14927;51.210;6.838;2023-12-20T03:56:50;18.90;;;3.70;;
27491;SDS011;14927;51.210;6.838;2023-12-20T03:59:35;21.30;;;3.70;;
27491;SDS011;14927;51.210;6.838;2023-12-20T04:02:21;14.60;;;2.58;;
27491;SDS011;14927;51.210;6.838;2023-12-20T04:05:06;17.13;;;3.28;;
27491;SDS011;14927;51.210;6.838;2023-12-20T04:07:51;10.93;;;2.45;;
27491;SDS011;14927;51.210;6.838;2023-12-20T04:10:36;16.80;;;2.55;;
27491;SDS011;14927;51.210;6.838;2023-12-20T04:13:21;16.70;;;3.15;;
27491;SDS011;14927;51.210;6.838;2023-12-20T04:16:06;14.02;;;3.33;;
27491;SDS011;14927;51.210;6.838;2023-12-20T04:18:50;9.23;;;2.67;;
27491;SDS011;14927;51.210;6.838;2023-12-20T04:21:37;13.70;;;2.85;;
27491;SDS011;14927;51.210;6.838;2023-12-20T04:24:21;10.05;;;3.22;;
27491;SDS011;14927;51.210;6.838;2023-12-20T04:27:06;11.00;;;2.50;;
27491;SDS011;14927;51.210;6.838;2023-12-20T04:29:52;15.40;;;3.25;;
27491;SDS011;14927;51.210;6.838;2023-12-20T04:32:36;19.85;;;3.83;;
27491;SDS011;14927;51.210;6.838;2023-12-20T04:35:21;19.92;;;3.97;;
27491;SDS011;14927;51.210;6.838;2023-12-20T04:38:05;15.00;;;3.40;;
27491;SDS011;14927;51.210;6.838;2023-12-20T04:40:50;16.42;;;3.33;;
27491;SDS011;14927;51.210;6.838;2023-12-20T04:43:35;17.00;;;3.35;;
27491;SDS011;14927;51.210;6.838;2023-12-20T04:46:19;17.15;;;3.42;;
27491;SDS011;14927;51.210;6.838;2023-12-20T04:49:04;15.68;;;3.85;;
27491;SDS011;14927;51.210;6.838;2023-12-20T04:51:49;20.38;;;3.55;;
27491;SDS011;14927;51.210;6.838;2023-12-20T04:54:33;25.38;;;3.95;;
27491;SDS011;14927;51.210;6.838;2023-12-20T04:57:19;19.08;;;4.00;;
27491;SDS011;14927;51.210;6.838;2023-12-20T05:00:07;15.95;;;4.13;;
27491;SDS011;14927;51.210;6.838;2023-12-20T05:02:52;16.45;;;4.05;;
27491;SDS011;14927;51.210;6.838;2023-12-20T05:05:36;17.30;;;4.15;;
27491;SDS011;14927;51.210;6.838;2023-12-20T05:08:22;16.77;;;4.25;;
27491;SDS011;14927;51.210;6.838;2023-12-20T05:11:07;19.85;;;4.40;;
27491;SDS011;14927;51.210;6.838;2023-12-20T05:13:51;19.77;;;4.10;;
27491;SDS011;14927;51.210;6.838;2023-12-20T05:16:36;11.75;;;3.70;;
27491;SDS011;14927;51.210;6.838;2023-12-20T05:19:21;18.95;;;4.40;;
27491;SDS011;14927;51.210;6.838;2023-12-20T05:22:06;15.52;;;3.80;;
27491;SDS011;14927;51.210;6.838;2023-12-20T05:24:51;21.73;;;4.47;;
27491;SDS011;14927;51.210;6.838;2023-12-20T05:27:35;14.60;;;3.63;;
27491;SDS011;14927;51.210;6.838;2023-12-20T05:30:20;16.40;;;3.90;;
27491;SDS011;14927;51.210;6.838;2023-12-20T05:33:05;13.02;;;4.60;;
27491;SDS011;14927;51.210;6.838;2023-12-20T05:35:49;15.52;;;3.90;;
27491;SDS011;14927;51.210;6.838;2023-12-20T05:38:34;12.40;;;3.55;;
27491;SDS011;14927;51.210;6.838;2023-12-20T05:41:18;17.25;;;3.63;;
27491;SDS011;14927;51.210;6.838;2023-12-20T05:44:05;17.63;;;4.32;;
27491;SDS011;14927;51.210;6.838;2023-12-20T05:46:50;15.93;;;4.03;;
27491;SDS011;14927;51.210;6.838;2023-12-20T05:49:34;18.38;;;4.22;;
27491;SDS011;14927;51.210;6.838;2023-12-20T05:52:19;17.40;;;3.92;;
27491;SDS011;14927;51.210;6.838;2023-12-20T05:55:04;15.65;;;3.83;;
27491;SDS011;14927;51.210;6.838;2023-12-20T05:57:48;14.77;;;3.65;;
27491;SDS011;14927;51.210;6.838;2023-12-20T06:00:33;12.88;;;3.47;;
27491;SDS011;14927;51.210;6.838;2023-12-20T06:03:18;15.88;;;4.45;;
27491;SDS011;14927;51.210;6.838;2023-12-20T06:06:06;16.40;;;3.75;;
27491;SDS011;14927;51.210;6.838;2023-12-20T06:08:51;23.92;;;4.38;;
27491;SDS011;14927;51.210;6.838;2023-12-20T06:11:36;12.27;;;3.75;;
27491;SDS011;14927;51.210;6.838;2023-12-20T06:14:20;16.85;;;4.20;;
27491;SDS011;14927;51.210;6.838;2023-12-20T06:17:05;19.10;;;3.88;;
27491;SDS011;14927;51.210;6.838;2023-12-20T06:19:49;17.70;;;4.07;;
27491;SDS011;14927;51.210;6.838;2023-12-20T06:22:35;16.42;;;4.22;;
27491;SDS011;14927;51.210;6.838;2023-12-20T06:25:33;22.92;;;4.45;;
27491;SDS011;14927;51.210;6.838;2023-12-20T06:28:17;19.33;;;5.15;;
27491;SDS011;14927;51.210;6.838;2023-12-20T06:31:02;28.63;;;4.80;;
27491;SDS011;14927;51.210;6.838;2023-12-20T06:33:47;19.38;;;5.03;;
27491;SDS011;14927;51.210;6.838;2023-12-20T06:36:40;16.42;;;4.15;;
27491;SDS011;14927;51.210;6.838;2023-12-20T06:39:25;18.50;;;3.85;;
27491;SDS011;14927;51.210;6.838;2023-12-20T06:42:10;21.70;;;4.50;;
27491;SDS011;14927;51.210;6.838;2023-12-20T06:44:54;14.65;;;4.15;;
27491;SDS011;14927;51.210;6.838;2023-12-20T06:47:39;21.02;;;4.30;;
27491;SDS011;14927;51.210;6.838;2023-12-20T06:50:24;16.58;;;4.28;;
27491;SDS011;14927;51.210;6.838;2023-12-20T06:53:08;17.52;;;4.50;;
27491;SDS011;14927;51.210;6.838;2023-12-20T06:55:53;17.48;;;4.38;;
27491;SDS011;14927;51.210;6.838;2023-12-20T06:58:40;13.45;;;3.58;;
27491;SDS011;14927;51.210;6.838;2023-12-20T07:01:24;16.58;;;4.68;;
27491;SDS011;14927;51.210;6.838;2023-12-20T07:04:09;19.83;;;4.82;;
27491;SDS011;14927;51.210;6.838;2023-12-20T07:06:54;21.90;;;5.03;;
27491;SDS011;14927;51.210;6.838;2023-12-20T07:09:41;19.00;;;4.00;;
27491;SDS011;14927;51.210;6.838;2023-12-20T07:12:26;20.83;;;4.18;;
27491;SDS011;14927;51.210;6.838;2023-12-20T07:15:12;17.77;;;4.45;;
27491;SDS011;14927;51.210;6.838;2023-12-20T07:17:56;20.73;;;5.28;;
27491;SDS011;14927;51.210;6.838;2023-12-20T07:20:43;18.15;;;4.32;;
27491;SDS011;14927;51.210;6.838;2023-12-20T07:23:28;19.13;;;4.68;;
27491;SDS011;14927;51.210;6.838;2023-12-20T07:26:12;20.38;;;3.70;;
27491;SDS011;14927;51.210;6.838;2023-12-20T07:28:57;15.65;;;4.35;;
27491;SDS011;14927;51.210;6.838;2023-12-20T07:31:42;19.83;;;3.92;;
27491;SDS011;14927;51.210;6.838;2023-12-20T07:34:27;16.02;;;3.40;;
27491;SDS011;14927;51.210;6.838;2023-12-20T07:37:12;22.42;;;4.47;;
27491;SDS011;14927;51.210;6.838;2023-12-20T07:40:00;22.85;;;4.10;;
27491;SDS011;14927;51.210;6.838;2023-12-20T07:42:44;16.80;;;4.68;;
27491;SDS011;14927;51.210;6.838;2023-12-20T07:45:29;22.80;;;4.45;;
27491;SDS011;14927;51.210;6.838;2023-12-20T07:48:14;19.38;;;4.55;;
27491;SDS011;14927;51.210;6.838;2023-12-20T07:50:58;17.73;;;4.53;;
27491;SDS011;14927;51.210;6.838;2023-12-20T07:53:43;12.20;;;3.70;;
27491;SDS011;14927;51.210;6.838;2023-12-20T07:56:28;16.35;;;4.40;;
27491;SDS011;14927;51.210;6.838;2023-12-20T07:59:25;16.73;;;4.82;;
27491;SDS011;14927;51.210;6.838;2023-12-20T08:02:10;14.38;;;4.10;;
27491;SDS011;14927;51.210;6.838;2023-12-20T08:04:55;18.60;;;4.32;;
27491;SDS011;14927;51.210;6.838;2023-12-20T08:07:40;18.17;;;4.53;;
27491;SDS011;14927;51.210;6.838;2023-12-20T08:10:24;17.55;;;4.15;;
27491;SDS011;14927;51.210;6.838;2023-12-20T08:13:09;19.13;;;4.95;;
27491;SDS011;14927;51.210;6.838;2023-12-20T08:15:59;21.13;;;4.70;;
27491;SDS011;14927;51.210;6.838;2023-12-20T08:18:47;17.90;;;4.35;;
27491;SDS011;14927;51.210;6.838;2023-12-20T08:21:31;16.88;;;3.90;;
27491;SDS011;14927;51.210;6.838;2023-12-20T08:24:16;20.60;;;4.15;;
27491;SDS011;14927;51.210;6.838;2023-12-20T08:27:01;26.13;;;4.90;;
27491;SDS011;14927;51.210;6.838;2023-12-20T08:29:46;19.38;;;4.07;;
27491;SDS011;14927;51.210;6.838;2023-12-20T08:32:31;23.00;;;5.32;;
27491;SDS011;14927;51.210;6.838;2023-12-20T08:35:15;17.77;;;3.47;;
27491;SDS011;14927;51.210;6.838;2023-12-20T08:38:04;19.20;;;4.32;;
27491;SDS011;14927;51.210;6.838;2023-12-20T08:40:49;19.75;;;4.20;;
27491;SDS011;14927;51.210;6.838;2023-12-20T08:43:34;21.08;;;4.30;;
27491;SDS011;14927;51.210;6.838;2023-12-20T08:46:19;21.52;;;4.10;;
27491;SDS011;14927;51.210;6.838;2023-12-20T08:49:04;21.42;;;4.72;;
27491;SDS011;14927;51.210;6.838;2023-12-20T08:51:49;22.55;;;4.75;;
27491;SDS011;14927;51.210;6.838;2023-12-20T08:54:44;17.10;;;3.35;;
27491;SDS011;14927;51.210;6.838;2023-12-20T08:57:29;16.02;;;4.40;;
27491;SDS011;14927;51.210;6.838;2023-12-20T09:00:21;16.83;;;3.85;;
27491;SDS011;14927;51.210;6.838;2023-12-20T09:03:08;17.88;;;4.03;;
27491;SDS011;14927;51.210;6.838;2023-12-20T09:05:53;17.98;;;3.90;;
27491;SDS011;14927;51.210;6.838;2023-12-20T09:08:37;17.75;;;3.55;;
27491;SDS011;14927;51.210;6.838;2023-12-20T09:11:22;17.33;;;3.72;;
27491;SDS011;14927;51.210;6.838;2023-12-20T09:14:06;17.27;;;4.22;;
27491;SDS011;14927;51.210;6.838;2023-12-20T09:16:51;18.27;;;3.55;;
27491;SDS011;14927;51.210;6.838;2023-12-20T09:19:39;22.20;;;4.22;;
27491;SDS011;14927;51.210;6.838;2023-12-20T09:22:24;18.52;;;3.88;;
27491;SDS011;14927;51.210;6.838;2023-12-20T09:25:12;18.23;;;3.90;;
27491;SDS011;14927;51.210;6.838;2023-12-20T09:27:57;16.77;;;3.75;;
27491;SDS011;14927;51.210;6.838;2023-12-20T09:30:42;14.30;;;3.08;;
27491;SDS011;14927;51.210;6.838;2023-12-20T09:33:28;18.35;;;4.00;;
27491;SDS011;14927;51.210;6.838;2023-12-20T09:36:16;14.95;;;3.08;;
27491;SDS011;14927;51.210;6.838;2023-12-20T09:39:01;21.10;;;3.53;;
27491;SDS011;14927;51.210;6.838;2023-12-20T09:41:45;14.98;;;3.85;;
27491;SDS011;14927;51.210;6.838;2023-12-20T09:44:49;17.77;;;3.95;;
27491;SDS011;14927;51.210;6.838;2023-12-20T09:47:33;22.55;;;3.65;;
27491;SDS011;14927;51.210;6.838;2023-12-20T09:50:19;17.02;;;3.80;;
27491;SDS011;14927;51.210;6.838;2023-12-20T09:53:05;14.55;;;3.00;;
27491;SDS011;14927;51.210;6.838;2023-12-20T09:55:52;14.63;;;3.05;;
27491;SDS011;14927;51.210;6.838;2023-12-20T09:58:46;16.33;;;2.85;;
27491;SDS011;14927;51.210;6.838;2023-12-20T10:01:31;15.05;;;3.63;;
27491;SDS011;14927;51.210;6.838;2023-12-20T10:04:17;18.52;;;3.78;;
27491;SDS011;14927;51.210;6.838;2023-12-20T10:07:02;15.48;;;2.88;;
27491;SDS011;14927;51.210;6.838;2023-12-20T10:09:51;15.25;;;3.75;;
27491;SDS011;14927;51.210;6.838;2023-12-20T10:12:39;19.70;;;3.95;;
27491;SDS011;14927;51.210;6.838;2023-12-20T10:15:24;13.43;;;3.70;;
27491;SDS011;14927;51.210;6.838;2023-12-20T10:18:09;17.52;;;3.95;;
27491;SDS011;14927;51.210;6.838;2023-12-20T10:20:54;25.58;;;4.43;;
27491;SDS011;14927;51.210;6.838;2023-12-20T10:23:39;16.60;;;3.33;;
27491;SDS011;14927;51.210;6.838;2023-12-20T10:26:25;18.02;;;3.15;;
27491;SDS011;14927;51.210;6.838;2023-12-20T10:29:10;19.65;;;2.75;;
27491;SDS011;14927;51.210;6.838;2023-12-20T10:31:54;20.45;;;3.47;;
27491;SDS011;14927;51.210;6.838;2023-12-20T10:34:41;13.20;;;2.95;;
27491;SDS011;14927;51.210;6.838;2023-12-20T10:37:26;20.02;;;3.40;;
27491;SDS011;14927;51.210;6.838;2023-12-20T10:40:11;16.60;;;3.22;;
27491;SDS011;14927;51.210;6.838;2023-12-20T10:42:57;14.27;;;3.22;;
27491;SDS011;14927;51.210;6.838;2023-12-20T10:45:50;15.63;;;3.67;;
27491;SDS011;14927;51.210;6.838;2023-12-20T10:49:06;14.30;;;3.15;;
27491;SDS011;14927;51.210;6.838;2023-12-20T10:51:53;20.00;;;2.97;;
27491;SDS011;14927;51.210;6.838;2023-12-20T10:54:41;12.32;;;2.90;;
27491;SDS011;14927;51.210;6.838;2023-12-20T10:57:26;18.30;;;3.92;;
27491;SDS011;14927;51.210;6.838;2023-12-20T11:00:12;9.65;;;3.00;;
27491;SDS011;14927;51.210;6.838;2023-12-20T11:03:00;19.77;;;3.28;;
27491;SDS011;14927;51.210;6.838;2023-12-20T11:05:50;15.38;;;3.15;;
27491;SDS011;14927;51.210;6.838;2023-12-20T11:08:48;18.70;;;3.22;;
27491;SDS011;14927;51.210;6.838;2023-12-20T11:14:46;18.63;;;3.00;;
27491;SDS011;14927;51.210;6.838;2023-12-20T11:17:34;14.73;;;3.13;;
27491;SDS011;14927;51.210;6.838;2023-12-20T11:20:20;17.15;;;3.17;;
27491;SDS011;14927;51.210;6.838;2023-12-20T11:23:27;16.30;;;3.13;;
27491;SDS011;14927;51.210;6.838;2023-12-20T11:26:11;11.70;;;2.33;;
27491;SDS011;14927;51.210;6.838;2023-12-20T11:37:55;20.27;;;3.55;;
27491;SDS011;14927;51.210;6.838;2023-12-20T11:40:42;20.10;;;3.78;;
27491;SDS011;14927;51.210;6.838;2023-12-20T11:46:16;17.70;;;4.07;;
27491;SDS011;14927;51.210;6.838;2023-12-20T11:49:00;17.70;;;3.28;;
27491;SDS011;14927;51.210;6.838;2023-12-20T11:51:45;20.45;;;3.47;;
27491;SDS011;14927;51.210;6.838;2023-12-20T11:54:30;16.95;;;3.30;;
27491;SDS011;14927;51.210;6.838;2023-12-20T11:57:14;17.30;;;3.25;;
27491;SDS011;14927;51.210;6.838;2023-12-20T11:59:59;15.35;;;2.75;;
27491;SDS011;14927;51.210;6.838;2023-12-20T12:02:54;13.05;;;3.05;;
27491;SDS011;14927;51.210;6.838;2023-12-20T12:05:42;17.42;;;3.72;;
27491;SDS011;14927;51.210;6.838;2023-12-20T12:08:27;14.43;;;2.83;;
27491;SDS011;14927;51.210;6.838;2023-12-20T12:11:11;19.65;;;3.13;;
27491;SDS011;14927;51.210;6.838;2023-12-20T12:13:56;16.05;;;3.35;;
27491;SDS011;14927;51.210;6.838;2023-12-20T12:16:43;16.38;;;3.10;;
27491;SDS011;14927;51.210;6.838;2023-12-20T12:19:29;14.60;;;3.25;;
27491;SDS011;14927;51.210;6.838;2023-12-20T12:22:18;18.00;;;3.50;;
27491;SDS011;14927;51.210;6.838;2023-12-20T12:25:10;11.85;;;3.00;;
27491;SDS011;14927;51.210;6.838;2023-12-20T12:27:56;17.65;;;3.58;;
27491;SDS011;14927;51.210;6.838;2023-12-20T12:30:42;20.70;;;3.70;;
27491;SDS011;14927;51.210;6.838;2023-12-20T12:33:27;16.75;;;3.15;;
27491;SDS011;14927;51.210;6.838;2023-12-20T12:36:12;18.88;;;4.15;;
27491;SDS011;14927;51.210;6.838;2023-12-20T12:39:02;16.45;;;3.40;;
27491;SDS011;14927;51.210;6.838;2023-12-20T12:44:35;15.27;;;3.03;;
27491;SDS011;14927;51.210;6.838;2023-12-20T12:47:19;21.85;;;4.50;;
27491;SDS011;14927;51.210;6.838;2023-12-20T12:50:04;13.13;;;3.22;;
27491;SDS011;14927;51.210;6.838;2023-12-20T12:52:49;10.07;;;2.42;;
27491;SDS011;14927;51.210;6.838;2023-12-20T12:55:34;16.48;;;2.72;;
27491;SDS011;14927;51.210;6.838;2023-12-20T12:58:20;12.80;;;2.85;;
27491;SDS011;14927;51.210;6.838;2023-12-20T13:01:04;15.98;;;3.53;;
27491;SDS011;14927;51.210;6.838;2023-12-20T13:03:49;16.92;;;3.90;;
27491;SDS011;14927;51.210;6.838;2023-12-20T13:06:34;17.17;;;3.05;;
27491;SDS011;14927;51.210;6.838;2023-12-20T13:09:19;13.50;;;2.97;;
27491;SDS011;14927;51.210;6.838;2023-12-20T13:12:03;16.27;;;3.60;;
27491;SDS011;14927;51.210;6.838;2023-12-20T13:14:49;13.45;;;2.95;;
27491;SDS011;14927;51.210;6.838;2023-12-20T13:17:34;16.95;;;3.63;;
27491;SDS011;14927;51.210;6.838;2023-12-20T13:20:18;19.27;;;4.13;;
27491;SDS011;14927;51.210;6.838;2023-12-20T13:23:03;10.15;;;3.58;;
27491;SDS011;14927;51.210;6.838;2023-12-20T13:25:48;18.92;;;4.32;;
27491;SDS011;14927;51.210;6.838;2023-12-20T13:28:32;17.58;;;4.20;;
27491;SDS011;14927;51.210;6.838;2023-12-20T13:31:17;12.90;;;3.47;;
27491;SDS011;14927;51.210;6.838;2023-12-20T13:34:01;16.15;;;3.65;;
27491;SDS011;14927;51.210;6.838;2023-12-20T13:36:46;14.77;;;3.20;;
27491;SDS011;14927;51.210;6.838;2023-12-20T13:39:31;15.35;;;3.53;;
27491;SDS011;14927;51.210;6.838;2023-12-20T13:42:16;13.80;;;3.53;;
27491;SDS011;14927;51.210;6.838;2023-12-20T13:45:00;13.93;;;3.65;;
27491;SDS011;14927;51.210;6.838;2023-12-20T13:47:45;16.75;;;3.97;;
27491;SDS011;14927;51.210;6.838;2023-12-20T13:50:30;18.48;;;3.63;;
27491;SDS011;14927;51.210;6.838;2023-12-20T13:53:14;17.13;;;3.90;;
27491;SDS011;14927;51.210;6.838;2023-12-20T13:55:59;11.32;;;3.70;;
27491;SDS011;14927;51.210;6.838;2023-12-20T13:58:43;12.63;;;3.00;;
27491;SDS011;14927;51.210;6.838;2023-12-20T14:01:30;15.18;;;3.20;;
27491;SDS011;14927;51.210;6.838;2023-12-20T14:04:15;13.70;;;3.78;;
27491;SDS011;14927;51.210;6.838;2023-12-20T14:06:59;13.88;;;3.67;;
27491;SDS011;14927;51.210;6.838;2023-12-20T14:09:47;11.88;;;2.88;;
27491;SDS011;14927;51.210;6.838;2023-12-20T14:12:32;13.50;;;2.67;;
27491;SDS011;14927;51.210;6.838;2023-12-20T14:15:28;8.90;;;2.63;;
27491;SDS011;14927;51.210;6.838;2023-12-20T14:18:13;12.23;;;3.08;;
27491;SDS011;14927;51.210;6.838;2023-12-20T14:21:05;11.85;;;2.67;;
27491;SDS011;14927;51.210;6.838;2023-12-20T14:23:55;15.27;;;3.28;;
27491;SDS011;14927;51.210;6.838;2023-12-20T14:26:42;12.13;;;3.20;;
27491;SDS011;14927;51.210;6.838;2023-12-20T14:29:37;11.75;;;2.83;;
27491;SDS011;14927;51.210;6.838;2023-12-20T14:32:21;9.55;;;2.47;;
27491;SDS011;14927;51.210;6.838;2023-12-20T14:35:06;9.48;;;2.70;;
27491;SDS011;14927;51.210;6.838;2023-12-20T14:37:52;13.02;;;3.40;;
27491;SDS011;14927;51.210;6.838;2023-12-20T14:40:40;13.48;;;3.15;;
27491;SDS011;14927;51.210;6.838;2023-12-20T14:43:25;13.95;;;3.55;;
27491;SDS011;14927;51.210;6.838;2023-12-20T14:46:13;15.15;;;3.03;;
27491;SDS011;14927;51.210;6.838;2023-12-20T14:49:00;15.27;;;3.35;;
27491;SDS011;14927;51.210;6.838;2023-12-20T14:51:53;15.40;;;3.88;;
27491;SDS011;14927;51.210;6.838;2023-12-20T14:54:38;11.73;;;3.55;;
27491;SDS011;14927;51.210;6.838;2023-12-20T14:57:23;11.23;;;2.90;;
27491;SDS011;14927;51.210;6.838;2023-12-20T15:00:07;17.42;;;3.78;;
27491;SDS011;14927;51.210;6.838;2023-12-20T15:02:52;12.13;;;3.33;;
27491;SDS011;14927;51.210;6.838;2023-12-20T15:05:40;13.70;;;2.72;;
27491;SDS011;14927;51.210;6.838;2023-12-20T15:08:25;16.30;;;3.38;;
27491;SDS011;14927;51.210;6.838;2023-12-20T15:11:14;15.27;;;3.30;;
27491;SDS011;14927;51.210;6.838;2023-12-20T15:13:59;8.07;;;2.58;;
27491;SDS011;14927;51.210;6.838;2023-12-20T15:16:47;12.55;;;3.08;;
27491;SDS011;14927;51.210;6.838;2023-12-20T15:19:31;11.30;;;3.05;;
27491;SDS011;14927;51.210;6.838;2023-12-20T15:22:16;11.80;;;2.83;;
27491;SDS011;14927;51.210;6.838;2023-12-20T15:25:01;10.88;;;2.90;;
27491;SDS011;14927;51.210;6.838;2023-12-20T15:27:50;12.05;;;2.92;;
27491;SDS011;14927;51.210;6.838;2023-12-20T15:30:38;15.52;;;3.92;;
27491;SDS011;14927;51.210;6.838;2023-12-20T15:33:22;15.18;;;3.33;;
27491;SDS011;14927;51.210;6.838;2023-12-20T15:36:07;18.98;;;3.65;;
27491;SDS011;14927;51.210;6.838;2023-12-20T15:38:51;12.52;;;3.03;;
27491;SDS011;14927;51.210;6.838;2023-12-20T15:41:36;15.43;;;3.28;;
27491;SDS011;14927;51.210;6.838;2023-12-20T15:44:21;13.93;;;3.15;;
27491;SDS011;14927;51.210;6.838;2023-12-20T15:47:05;11.60;;;2.88;;
27491;SDS011;14927;51.210;6.838;2023-12-20T15:49:50;13.77;;;3.60;;
27491;SDS011;14927;51.210;6.838;2023-12-20T15:52:35;17.17;;;3.17;;
27491;SDS011;14927;51.210;6.838;2023-12-20T15:55:20;15.68;;;3.95;;
27491;SDS011;14927;51.210;6.838;2023-12-20T15:58:05;15.63;;;2.90;;
27491;SDS011;14927;51.210;6.838;2023-12-20T16:00:49;10.52;;;3.08;;
27491;SDS011;14927;51.210;6.838;2023-12-20T16:03:35;13.18;;;3.58;;
27491;SDS011;14927;51.210;6.838;2023-12-20T16:06:20;13.77;;;3.55;;
27491;SDS011;14927;51.210;6.838;2023-12-20T16:09:05;16.88;;;3.50;;
27491;SDS011;14927;51.210;6.838;2023-12-20T16:11:50;10.88;;;3.35;;
27491;SDS011;14927;51.210;6.838;2023-12-20T16:14:34;14.65;;;3.30;;
27491;SDS011;14927;51.210;6.838;2023-12-20T16:17:19;14.27;;;3.45;;
27491;SDS011;14927;51.210;6.838;2023-12-20T16:20:07;16.40;;;4.15;;
27491;SDS011;14927;51.210;6.838;2023-12-20T16:22:54;10.98;;;3.42;;
27491;SDS011;14927;51.210;6.838;2023-12-20T16:25:39;15.45;;;3.50;;
27491;SDS011;14927;51.210;6.838;2023-12-20T16:28:24;14.43;;;3.65;;
27491;SDS011;14927;51.210;6.838;2023-12-20T16:31:09;14.45;;;3.90;;
27491;SDS011;14927;51.210;6.838;2023-12-20T16:33:54;20.25;;;4.70;;
27491;SDS011;14927;51.210;6.838;2023-12-20T16:36:49;19.52;;;4.68;;
27491;SDS011;14927;51.210;6.838;2023-12-20T16:39:35;12.23;;;4.03;;
27491;SDS011;14927;51.210;6.838;2023-12-20T16:42:19;16.63;;;4.20;;
27491;SDS011;14927;51.210;6.838;2023-12-20T16:45:04;15.23;;;4.03;;